createdAt,value
2019-03-27T00:00:57.090Z,8.50
2019-03-27T00:01:57.065Z,10.20
2019-03-27T00:02:57.107Z,9.40
2019-03-27T00:03:57.153Z,9.70
2019-03-27T00:04:57.087Z,10.30
2019-03-27T00:05:57.096Z,8.80
2019-03-27T00:06:57.125Z,8.50
2019-03-27T00:07:57.082Z,9.40
2019-03-27T00:08:57.107Z,10.60
2019-03-27T00:09:57.112Z,10.10
2019-03-27T00:10:57.069Z,8.40
2019-03-27T00:11:57.072Z,10.50
2019-03-27T00:12:57.161Z,8.40
2019-03-27T00:13:57.098Z,10.00
2019-03-27T00:14:57.101Z,8.40
2019-03-27T00:15:57.124Z,8.50
2019-03-27T00:16:57.079Z,8.80
2019-03-27T00:17:57.091Z,8.30
2019-03-27T00:18:57.115Z,10.00
2019-03-27T00:19:57.113Z,8.20
2019-03-27T00:20:57.114Z,7.80
2019-03-27T00:21:57.153Z,8.20
2019-03-27T00:22:57.090Z,9.50
2019-03-27T00:23:57.119Z,7.30
2019-03-27T00:24:57.168Z,8.10
2019-03-27T00:25:57.087Z,10.10
2019-03-27T00:26:57.108Z,8.80
2019-03-27T00:27:57.157Z,8.60
2019-03-27T00:28:57.106Z,8.10
2019-03-27T00:29:57.131Z,8.50
2019-03-27T00:30:57.150Z,8.60
2019-03-27T00:31:57.106Z,7.90
2019-03-27T00:32:57.104Z,8.60
2019-03-27T00:33:57.133Z,7.70
2019-03-27T00:34:57.114Z,8.50
2019-03-27T00:35:57.116Z,6.70
2019-03-27T00:36:57.167Z,7.60
2019-03-27T00:37:57.115Z,8.30
2019-03-27T00:38:57.092Z,8.20
2019-03-27T00:39:57.184Z,7.40
2019-03-27T00:40:57.103Z,8.20
2019-03-27T00:41:57.166Z,6.80
2019-03-27T00:42:57.141Z,7.70
2019-03-27T00:43:57.129Z,6.50
2019-03-27T00:44:57.121Z,8.30
2019-03-27T00:45:57.156Z,7.90
2019-03-27T00:46:57.103Z,9.50
2019-03-27T00:47:57.145Z,8.70
2019-03-27T00:48:57.190Z,9.00
2019-03-27T00:49:57.104Z,8.90
2019-03-27T00:50:57.130Z,8.30
2019-03-27T00:51:57.153Z,10.00
2019-03-27T00:52:57.124Z,9.80
2019-03-27T00:53:57.121Z,9.20
2019-03-27T00:54:57.144Z,10.10
2019-03-27T00:55:57.118Z,11.40
2019-03-27T00:56:57.152Z,10.60
2019-03-27T00:57:57.123Z,8.50
2019-03-27T00:58:57.128Z,9.40
2019-03-27T00:59:57.120Z,12.00
2019-03-27T01:00:57.170Z,9.50
2019-03-27T01:01:57.121Z,9.70
2019-03-27T01:02:57.147Z,11.30
2019-03-27T01:03:57.142Z,10.40
2019-03-27T01:04:57.130Z,8.40
2019-03-27T01:05:57.169Z,8.20
2019-03-27T01:06:57.154Z,9.10
2019-03-27T01:07:57.143Z,6.00
2019-03-27T01:08:57.110Z,5.50
2019-03-27T01:09:57.174Z,5.70
2019-03-27T01:10:57.125Z,7.10
2019-03-27T01:11:57.141Z,6.20
2019-03-27T01:12:57.177Z,7.50
2019-03-27T01:13:57.123Z,5.20
2019-03-27T01:14:57.118Z,5.20
2019-03-27T01:15:57.166Z,5.90
2019-03-27T01:16:57.133Z,4.90
2019-03-27T01:17:57.149Z,6.70
2019-03-27T01:18:57.141Z,5.20
2019-03-27T01:19:57.129Z,6.70
2019-03-27T01:20:57.124Z,4.90
2019-03-27T01:21:57.194Z,5.20
2019-03-27T01:22:57.150Z,6.80
2019-03-27T01:23:57.157Z,6.00
2019-03-27T01:24:57.169Z,6.40
2019-03-27T01:25:57.122Z,5.90
2019-03-27T01:26:57.164Z,7.50
2019-03-27T01:27:57.178Z,4.70
2019-03-27T01:28:57.133Z,5.20
2019-03-27T01:29:57.147Z,6.10
2019-03-27T01:30:57.141Z,5.40
2019-03-27T01:31:57.186Z,4.50
2019-03-27T01:32:57.245Z,6.00
2019-03-27T01:33:57.340Z,5.30
2019-03-27T01:34:57.233Z,5.40
2019-03-27T01:35:57.260Z,6.20
2019-03-27T01:36:57.298Z,6.40
2019-03-27T01:37:57.264Z,6.50
2019-03-27T01:38:57.323Z,6.10
2019-03-27T01:39:57.301Z,5.70
2019-03-27T01:40:57.270Z,4.70
2019-03-27T01:41:57.330Z,5.10
2019-03-27T01:42:57.387Z,4.50
2019-03-27T01:43:57.326Z,6.20
2019-03-27T01:44:57.387Z,4.90
2019-03-27T01:45:57.417Z,5.60
2019-03-27T01:46:57.346Z,4.70
2019-03-27T01:47:57.381Z,4.40
2019-03-27T01:48:57.450Z,4.70
2019-03-27T01:49:57.403Z,4.90
2019-03-27T01:50:57.409Z,6.10
2019-03-27T01:51:57.403Z,7.00
2019-03-27T01:52:57.424Z,6.50
2019-03-27T01:53:57.434Z,6.20
2019-03-27T01:54:57.490Z,5.50
2019-03-27T01:55:57.504Z,5.60
2019-03-27T01:56:57.518Z,6.00
2019-03-27T01:57:57.535Z,4.40
2019-03-27T01:58:57.519Z,6.60
2019-03-27T01:59:57.549Z,6.70
2019-03-27T02:00:57.566Z,6.70
2019-03-27T02:01:57.534Z,6.30
2019-03-27T02:02:57.568Z,5.60
2019-03-27T02:03:57.571Z,6.90
2019-03-27T02:04:57.567Z,6.50
2019-03-27T02:05:57.568Z,6.20
2019-03-27T02:06:57.621Z,8.50
2019-03-27T02:07:57.606Z,6.90
2019-03-27T02:08:57.631Z,6.70
2019-03-27T02:09:57.668Z,5.60
2019-03-27T02:10:57.667Z,5.80
2019-03-27T02:11:57.656Z,7.30
2019-03-27T02:12:57.703Z,8.70
2019-03-27T02:13:57.666Z,8.60
2019-03-27T02:14:57.653Z,12.30
2019-03-27T02:16:06.865Z,11.60
2019-03-27T02:16:57.707Z,9.40
2019-03-27T02:17:57.722Z,7.80
2019-03-27T02:18:57.725Z,8.00
2019-03-27T02:19:57.708Z,8.60
2019-03-27T02:20:57.736Z,11.40
2019-03-27T02:21:57.759Z,14.80
2019-03-27T02:22:57.722Z,12.10
2019-03-27T02:23:57.715Z,13.20
2019-03-27T02:24:57.776Z,11.60
2019-03-27T02:25:57.701Z,9.10
2019-03-27T02:26:57.702Z,9.30
2019-03-27T02:27:57.739Z,10.70
2019-03-27T02:28:57.722Z,7.60
2019-03-27T02:29:57.753Z,8.80
2019-03-27T02:30:57.747Z,7.60
2019-03-27T02:31:57.730Z,7.30
2019-03-27T02:32:57.736Z,8.00
2019-03-27T02:33:57.766Z,6.40
2019-03-27T02:34:57.729Z,5.90
2019-03-27T02:35:57.753Z,6.50
2019-03-27T02:36:57.763Z,6.60
2019-03-27T02:37:57.722Z,7.60
2019-03-27T02:38:57.768Z,5.70
2019-03-27T02:39:57.766Z,7.60
2019-03-27T02:40:57.730Z,7.60
2019-03-27T02:41:57.765Z,7.20
2019-03-27T02:42:57.761Z,5.50
2019-03-27T02:43:57.727Z,5.90
2019-03-27T02:44:57.747Z,5.70
2019-03-27T02:45:57.774Z,6.20
2019-03-27T02:46:57.752Z,4.70
2019-03-27T02:47:57.753Z,4.90
2019-03-27T02:48:57.792Z,6.60
2019-03-27T02:49:57.751Z,7.20
2019-03-27T02:50:57.751Z,7.00
2019-03-27T02:51:57.782Z,6.90
2019-03-27T02:52:57.771Z,7.90
2019-03-27T02:53:57.740Z,11.70
2019-03-27T02:54:57.775Z,11.30
2019-03-27T02:55:57.765Z,9.40
2019-03-27T02:56:57.764Z,11.30
2019-03-27T02:57:57.782Z,10.40
2019-03-27T02:58:57.763Z,11.20
2019-03-27T02:59:57.760Z,6.00
2019-03-27T03:00:57.763Z,9.30
2019-03-27T03:01:57.746Z,6.80
2019-03-27T03:02:57.768Z,7.60
2019-03-27T03:03:57.802Z,8.20
2019-03-27T03:04:57.774Z,4.90
2019-03-27T03:05:57.767Z,8.20
2019-03-27T03:06:57.809Z,7.60
2019-03-27T03:07:57.730Z,6.40
2019-03-27T03:08:57.721Z,6.80
2019-03-27T03:09:57.838Z,9.00
2019-03-27T03:10:57.760Z,6.40
2019-03-27T03:11:57.762Z,7.60
2019-03-27T03:12:57.793Z,7.20
2019-03-27T03:13:57.748Z,6.80
2019-03-27T03:14:57.765Z,6.70
2019-03-27T03:15:57.776Z,8.20
2019-03-27T03:16:57.791Z,6.80
2019-03-27T03:17:57.765Z,8.90
2019-03-27T03:18:57.791Z,7.10
2019-03-27T03:19:57.774Z,5.20
2019-03-27T03:20:57.775Z,7.00
2019-03-27T03:21:57.808Z,6.80
2019-03-27T03:22:57.777Z,6.50
2019-03-27T03:23:57.812Z,6.50
2019-03-27T03:24:57.802Z,7.30
2019-03-27T03:25:57.766Z,7.50
2019-03-27T03:26:57.781Z,7.20
2019-03-27T03:27:57.808Z,7.20
2019-03-27T03:28:57.780Z,6.30
2019-03-27T03:29:57.820Z,6.80
2019-03-27T03:30:57.793Z,8.10
2019-03-27T03:31:57.772Z,6.10
2019-03-27T03:32:57.821Z,8.90
2019-03-27T03:33:57.816Z,7.20
2019-03-27T03:34:57.769Z,9.30
2019-03-27T03:35:57.807Z,5.40
2019-03-27T03:36:57.802Z,7.30
2019-03-27T03:37:57.784Z,8.80
2019-03-27T03:38:57.811Z,7.20
2019-03-27T03:39:57.823Z,6.30
2019-03-27T03:40:57.792Z,6.00
2019-03-27T03:41:57.796Z,7.70
2019-03-27T03:42:57.812Z,8.50
2019-03-27T03:43:57.771Z,8.60
2019-03-27T03:44:57.799Z,6.50
2019-03-27T03:45:57.804Z,7.80
2019-03-27T03:46:59.905Z,7.40
2019-03-27T03:47:57.803Z,8.40
2019-03-27T03:48:57.815Z,6.10
2019-03-27T03:49:57.798Z,7.30
2019-03-27T03:50:57.924Z,7.60
2019-03-27T03:51:57.899Z,6.70
2019-03-27T03:52:57.813Z,9.30
2019-03-27T03:53:57.803Z,8.80
2019-03-27T03:54:57.825Z,6.70
2019-03-27T03:55:57.801Z,7.10
2019-03-27T03:56:57.819Z,9.10
2019-03-27T03:57:57.842Z,7.30
2019-03-27T03:58:57.810Z,6.80
2019-03-27T03:59:57.796Z,6.70
2019-03-27T04:00:57.813Z,8.80
2019-03-27T04:01:57.817Z,9.90
2019-03-27T04:02:57.827Z,7.00
2019-03-27T04:03:57.835Z,7.00
2019-03-27T04:04:57.818Z,7.70
2019-03-27T04:05:57.851Z,7.70
2019-03-27T04:06:57.827Z,8.80
2019-03-27T04:07:57.784Z,7.80
2019-03-27T04:08:57.805Z,7.20
2019-03-27T04:09:57.840Z,6.40
2019-03-27T04:10:57.805Z,8.20
2019-03-27T04:11:57.803Z,6.90
2019-03-27T04:12:57.828Z,7.00
2019-03-27T04:13:57.829Z,8.20
2019-03-27T04:14:57.801Z,6.70
2019-03-27T04:15:57.836Z,7.10
2019-03-27T04:16:57.825Z,5.90
2019-03-27T04:17:57.814Z,7.10
2019-03-27T04:18:57.815Z,7.70
2019-03-27T04:19:57.789Z,6.00
2019-03-27T04:20:57.821Z,7.70
2019-03-27T04:21:57.857Z,7.10
2019-03-27T04:22:57.802Z,6.00
2019-03-27T04:23:57.855Z,8.70
2019-03-27T04:24:57.853Z,6.70
2019-03-27T04:26:57.830Z,6.70
2019-03-27T04:27:57.903Z,9.00
2019-03-27T04:28:57.823Z,8.00
2019-03-27T04:29:57.843Z,7.40
2019-03-27T04:30:57.861Z,6.70
2019-03-27T04:31:57.815Z,6.90
2019-03-27T04:32:57.833Z,6.20
2019-03-27T04:33:57.850Z,6.10
2019-03-27T04:34:57.845Z,7.80
2019-03-27T04:35:57.819Z,6.80
2019-03-27T04:36:57.872Z,8.70
2019-03-27T04:37:57.820Z,6.80
2019-03-27T04:38:57.837Z,5.60
2019-03-27T04:39:57.924Z,8.70
2019-03-27T04:40:57.811Z,7.60
2019-03-27T04:41:57.844Z,6.20
2019-03-27T04:42:57.858Z,6.60
2019-03-27T04:43:57.811Z,5.70
2019-03-27T04:44:57.813Z,6.50
2019-03-27T04:45:57.869Z,6.00
2019-03-27T04:46:57.843Z,6.60
2019-03-27T04:47:57.861Z,6.80
2019-03-27T04:48:57.851Z,6.70
2019-03-27T04:49:57.808Z,6.10
2019-03-27T04:50:57.856Z,6.20
2019-03-27T04:51:57.907Z,4.60
2019-03-27T04:52:57.834Z,6.70
2019-03-27T04:53:57.843Z,7.20
2019-03-27T04:54:57.838Z,6.20
2019-03-27T04:55:57.825Z,6.40
2019-03-27T04:56:57.860Z,6.00
2019-03-27T04:57:57.875Z,6.10
2019-03-27T04:58:57.860Z,7.00
2019-03-27T04:59:57.898Z,6.90
2019-03-27T05:00:57.865Z,5.50
2019-03-27T05:01:57.838Z,7.20
2019-03-27T05:02:57.828Z,6.00
2019-03-27T05:03:57.840Z,8.80
2019-03-27T05:04:57.856Z,6.90
2019-03-27T05:05:57.876Z,5.30
2019-03-27T05:06:57.862Z,7.90
2019-03-27T05:07:57.862Z,7.60
2019-03-27T05:08:57.872Z,7.60
2019-03-27T05:09:57.852Z,7.00
2019-03-27T05:10:57.837Z,6.60
2019-03-27T05:11:57.933Z,8.10
2019-03-27T05:12:57.853Z,6.80
2019-03-27T05:13:57.860Z,6.70
2019-03-27T05:14:57.841Z,7.90
2019-03-27T05:15:57.877Z,6.30
2019-03-27T05:16:57.904Z,7.10
2019-03-27T05:17:57.866Z,8.10
2019-03-27T05:18:57.891Z,6.90
2019-03-27T05:19:57.846Z,6.70
2019-03-27T05:20:57.851Z,7.70
2019-03-27T05:21:57.891Z,5.20
2019-03-27T05:22:57.848Z,7.20
2019-03-27T05:23:57.885Z,7.60
2019-03-27T05:24:57.840Z,6.90
2019-03-27T05:25:57.851Z,5.90
2019-03-27T05:26:57.870Z,7.70
2019-03-27T05:27:57.866Z,6.90
2019-03-27T05:28:57.864Z,8.40
2019-03-27T05:29:57.891Z,6.70
2019-03-27T05:30:57.862Z,6.90
2019-03-27T05:31:57.849Z,6.40
2019-03-27T05:32:57.857Z,5.90
2019-03-27T05:33:57.880Z,7.00
2019-03-27T05:34:57.855Z,7.00
2019-03-27T05:35:57.879Z,6.30
2019-03-27T05:36:57.881Z,5.70
2019-03-27T05:37:57.846Z,7.00
2019-03-27T05:38:57.837Z,10.50
2019-03-27T05:39:57.834Z,6.70
2019-03-27T05:40:57.879Z,8.10
2019-03-27T05:41:57.880Z,6.90
2019-03-27T05:43:00.989Z,7.30
2019-03-27T05:43:57.847Z,13.10
2019-03-27T05:44:57.879Z,10.00
2019-03-27T05:45:57.888Z,12.10
2019-03-27T05:46:57.890Z,8.20
2019-03-27T05:47:59.920Z,7.30
2019-03-27T05:48:57.899Z,8.80
2019-03-27T05:49:57.853Z,7.00
2019-03-27T05:50:57.884Z,6.30
2019-03-27T05:51:57.895Z,6.70
2019-03-27T05:52:57.877Z,6.10
2019-03-27T05:53:57.903Z,5.00
2019-03-27T05:54:57.900Z,5.50
2019-03-27T05:55:57.881Z,5.10
2019-03-27T05:56:57.892Z,9.00
2019-03-27T05:57:57.893Z,7.70
2019-03-27T05:58:57.899Z,8.50
2019-03-27T05:59:57.911Z,6.30
2019-03-27T06:00:57.893Z,6.00
2019-03-27T06:01:57.860Z,7.00
2019-03-27T06:02:57.903Z,6.30
2019-03-27T06:03:57.898Z,5.70
2019-03-27T06:04:57.955Z,5.50
2019-03-27T06:05:57.915Z,5.50
2019-03-27T06:06:57.904Z,7.60
2019-03-27T06:07:57.895Z,4.90
2019-03-27T06:08:57.879Z,6.20
2019-03-27T06:09:57.921Z,6.20
2019-03-27T06:10:57.931Z,5.80
2019-03-27T06:11:57.938Z,6.20
2019-03-27T06:12:57.927Z,5.80
2019-03-27T06:13:57.896Z,5.70
2019-03-27T06:14:57.915Z,6.10
2019-03-27T06:15:57.916Z,5.90
2019-03-27T06:16:57.890Z,5.80
2019-03-27T06:17:57.920Z,8.10
2019-03-27T06:18:57.953Z,24.10
2019-03-27T06:19:57.873Z,11.20
2019-03-27T06:20:57.898Z,5.60
2019-03-27T06:21:57.919Z,39.20
2019-03-27T06:22:57.886Z,28.70
2019-03-27T06:23:57.891Z,17.10
2019-03-27T06:24:57.934Z,8.50
2019-03-27T06:25:57.892Z,8.40
2019-03-27T06:26:57.898Z,6.10
2019-03-27T06:27:57.926Z,6.10
2019-03-27T06:28:57.903Z,7.50
2019-03-27T06:29:57.932Z,6.60
2019-03-27T06:30:57.933Z,6.50
2019-03-27T06:31:57.877Z,6.90
2019-03-27T06:32:57.902Z,6.00
2019-03-27T06:33:57.927Z,6.70
2019-03-27T06:34:57.923Z,6.20
2019-03-27T06:35:57.933Z,6.80
2019-03-27T06:36:57.935Z,6.40
2019-03-27T06:37:57.884Z,7.10
2019-03-27T06:38:57.923Z,7.10
2019-03-27T06:39:57.953Z,5.80
2019-03-27T06:40:57.906Z,7.20
2019-03-27T06:41:57.986Z,6.00
2019-03-27T06:42:57.999Z,6.70
2019-03-27T06:43:57.889Z,5.80
2019-03-27T06:44:57.929Z,4.80
2019-03-27T06:45:58.503Z,6.70
2019-03-27T06:46:57.911Z,6.00
2019-03-27T06:47:57.938Z,5.90
2019-03-27T06:48:58.018Z,7.10
2019-03-27T06:49:57.893Z,6.20
2019-03-27T06:50:57.929Z,4.90
2019-03-27T06:51:57.927Z,6.20
2019-03-27T06:52:57.905Z,5.70
2019-03-27T06:53:57.948Z,6.00
2019-03-27T06:54:57.950Z,6.00
2019-03-27T06:55:57.994Z,6.20
2019-03-27T06:57:01.044Z,7.00
2019-03-27T06:57:57.952Z,10.00
2019-03-27T06:58:57.934Z,9.10
2019-03-27T06:59:57.939Z,10.60
2019-03-27T07:00:58.002Z,11.20
2019-03-27T07:01:57.908Z,7.90
2019-03-27T07:02:57.953Z,7.10
2019-03-27T07:04:09.869Z,7.20
2019-03-27T07:04:57.917Z,6.70
2019-03-27T07:05:57.937Z,25.30
2019-03-27T07:06:57.947Z,29.40
2019-03-27T07:07:57.914Z,9.70
2019-03-27T07:08:57.951Z,5.30
2019-03-27T07:09:57.950Z,6.80
2019-03-27T07:10:57.926Z,5.70
2019-03-27T07:11:57.962Z,6.90
2019-03-27T07:12:57.959Z,6.80
2019-03-27T07:13:57.912Z,6.90
2019-03-27T07:14:57.923Z,6.60
2019-03-27T07:15:57.947Z,5.20
2019-03-27T07:16:57.934Z,5.20
2019-03-27T07:17:57.982Z,6.50
2019-03-27T07:18:57.951Z,18.80
2019-03-27T07:19:57.922Z,41.50
2019-03-27T07:20:57.950Z,20.30
2019-03-27T07:21:57.967Z,8.00
2019-03-27T07:22:57.961Z,11.60
2019-03-27T07:23:57.933Z,13.40
2019-03-27T07:24:57.932Z,20.60
2019-03-27T07:25:57.906Z,11.90
2019-03-27T07:26:57.952Z,6.30
2019-03-27T07:27:57.979Z,6.40
2019-03-27T07:28:57.958Z,5.30
2019-03-27T07:29:57.955Z,6.10
2019-03-27T07:30:57.974Z,5.70
2019-03-27T07:31:57.931Z,6.60
2019-03-27T07:32:57.948Z,8.30
2019-03-27T07:33:57.955Z,6.50
2019-03-27T07:34:57.950Z,7.00
2019-03-27T07:35:57.974Z,5.70
2019-03-27T07:36:57.983Z,6.90
2019-03-27T07:37:57.936Z,5.80
2019-03-27T07:39:10.377Z,6.50
2019-03-27T07:39:57.968Z,7.30
2019-03-27T07:40:58.063Z,7.10
2019-03-27T07:41:57.978Z,5.70
2019-03-27T07:42:57.981Z,6.10
2019-03-27T07:43:57.946Z,7.70
2019-03-27T07:44:57.967Z,7.60
2019-03-27T07:45:57.952Z,7.20
2019-03-27T07:46:57.944Z,6.40
2019-03-27T07:47:57.999Z,7.90
2019-03-27T07:48:57.979Z,8.10
2019-03-27T07:49:57.935Z,5.90
2019-03-27T07:50:57.956Z,5.70
2019-03-27T07:51:57.965Z,5.30
2019-03-27T07:52:57.967Z,5.50
2019-03-27T07:53:57.967Z,5.40
2019-03-27T07:54:57.998Z,5.60
2019-03-27T07:55:57.940Z,7.90
2019-03-27T07:56:57.940Z,7.20
2019-03-27T07:57:57.995Z,6.10
2019-03-27T07:58:59.831Z,6.40
2019-03-27T07:59:57.975Z,6.20
2019-03-27T08:00:58.008Z,5.10
2019-03-27T08:01:57.947Z,6.10
2019-03-27T08:02:57.939Z,4.70
2019-03-27T08:03:58.010Z,6.00
2019-03-27T08:04:57.979Z,6.50
2019-03-27T08:05:57.952Z,5.50
2019-03-27T08:06:57.988Z,6.90
2019-03-27T08:07:57.949Z,6.00
2019-03-27T08:08:57.979Z,4.90
2019-03-27T08:09:58.006Z,5.90
2019-03-27T08:10:57.949Z,7.00
2019-03-27T08:11:57.956Z,5.30
2019-03-27T08:12:57.984Z,5.50
2019-03-27T08:13:57.954Z,6.60
2019-03-27T08:14:57.949Z,6.50
2019-03-27T08:15:58.009Z,8.40
2019-03-27T08:16:57.969Z,10.70
2019-03-27T08:17:57.962Z,7.00
2019-03-27T08:19:07.398Z,4.90
2019-03-27T08:19:57.955Z,7.10
2019-03-27T08:20:57.985Z,8.20
2019-03-27T08:21:57.997Z,4.90
2019-03-27T08:22:57.985Z,5.50
2019-03-27T08:23:58.001Z,5.70
2019-03-27T08:24:58.099Z,6.50
2019-03-27T08:25:57.972Z,5.10
2019-03-27T08:26:57.981Z,5.70
2019-03-27T08:27:58.012Z,5.00
2019-03-27T08:28:57.980Z,4.50
2019-03-27T08:29:57.959Z,5.10
2019-03-27T08:30:58.015Z,4.40
2019-03-27T08:31:57.968Z,5.40
2019-03-27T08:32:57.993Z,7.20
2019-03-27T08:33:58.019Z,6.20
2019-03-27T08:34:58.003Z,7.20
2019-03-27T08:35:57.992Z,7.90
2019-03-27T08:36:57.995Z,6.30
2019-03-27T08:37:57.965Z,6.00
2019-03-27T08:38:57.996Z,5.20
2019-03-27T08:39:58.028Z,5.40
2019-03-27T08:40:57.989Z,5.20
2019-03-27T08:41:57.992Z,5.50
2019-03-27T08:42:58.019Z,8.00
2019-03-27T08:43:57.969Z,6.20
2019-03-27T08:44:57.979Z,5.10
2019-03-27T08:45:58.099Z,5.70
2019-03-27T08:46:58.023Z,5.10
2019-03-27T08:47:57.970Z,6.40
2019-03-27T08:48:58.007Z,7.60
2019-03-27T08:49:57.980Z,6.10
2019-03-27T08:50:58.013Z,5.50
2019-03-27T08:51:58.034Z,6.00
2019-03-27T08:52:58.000Z,6.60
2019-03-27T08:53:58.035Z,6.30
2019-03-27T08:54:58.076Z,5.70
2019-03-27T08:55:57.979Z,6.00
2019-03-27T08:56:58.015Z,5.50
2019-03-27T08:57:57.997Z,6.90
2019-03-27T08:58:58.017Z,6.90
2019-03-27T08:59:58.014Z,6.80
2019-03-27T09:00:58.028Z,6.50
2019-03-27T09:01:57.988Z,7.40
2019-03-27T09:02:58.044Z,6.50
2019-03-27T09:03:58.041Z,6.10
2019-03-27T09:04:57.998Z,7.00
2019-03-27T09:05:58.000Z,7.50
2019-03-27T09:06:58.023Z,6.90
2019-03-27T09:07:58.002Z,8.20
2019-03-27T09:08:57.990Z,8.00
2019-03-27T09:09:58.079Z,13.60
2019-03-27T09:10:58.096Z,11.10
2019-03-27T09:11:58.024Z,9.80
2019-03-27T09:12:58.043Z,11.30
2019-03-27T09:13:58.000Z,11.10
2019-03-27T09:14:58.026Z,10.00
2019-03-27T09:15:58.053Z,11.80
2019-03-27T09:16:58.015Z,12.20
2019-03-27T09:17:58.020Z,9.90
2019-03-27T09:18:58.078Z,11.30
2019-03-27T09:19:57.989Z,11.70
2019-03-27T09:20:58.017Z,12.70
2019-03-27T09:21:58.040Z,13.30
2019-03-27T09:22:58.017Z,11.80
2019-03-27T09:23:58.017Z,12.40
2019-03-27T09:24:58.037Z,14.00
2019-03-27T09:25:58.017Z,14.30
2019-03-27T09:26:58.007Z,13.90
2019-03-27T09:27:58.055Z,12.70
2019-03-27T09:28:58.042Z,13.10
2019-03-27T09:29:58.016Z,11.20
2019-03-27T09:30:58.042Z,13.20
2019-03-27T09:31:58.027Z,12.90
2019-03-27T09:32:58.027Z,12.50
2019-03-27T09:33:58.065Z,12.90
2019-03-27T09:34:58.030Z,12.40
2019-03-27T09:35:58.118Z,13.30
2019-03-27T09:36:58.055Z,12.20
2019-03-27T09:37:58.013Z,12.50
2019-03-27T09:38:58.122Z,12.60
2019-03-27T09:39:58.074Z,11.70
2019-03-27T09:40:58.025Z,12.60
2019-03-27T09:41:58.045Z,13.60
2019-03-27T09:42:58.045Z,12.60
2019-03-27T09:43:58.000Z,12.00
2019-03-27T09:44:58.044Z,13.20
2019-03-27T09:45:58.070Z,12.70
2019-03-27T09:46:58.029Z,11.60
2019-03-27T09:47:58.058Z,10.50
2019-03-27T09:48:58.055Z,12.60
2019-03-27T09:49:58.036Z,12.50
2019-03-27T09:50:58.010Z,11.40
2019-03-27T09:51:58.086Z,11.50
2019-03-27T09:52:58.037Z,12.10
2019-03-27T09:53:58.035Z,14.90
2019-03-27T09:54:58.050Z,13.00
2019-03-27T09:55:58.044Z,13.70
2019-03-27T09:56:58.020Z,12.20
2019-03-27T09:57:58.089Z,14.50
2019-03-27T09:58:58.118Z,14.10
2019-03-27T09:59:58.053Z,14.50
2019-03-27T10:00:58.067Z,14.90
2019-03-27T10:01:58.035Z,15.20
2019-03-27T10:02:58.060Z,14.50
2019-03-27T10:03:58.084Z,17.90
2019-03-27T10:04:58.044Z,13.90
2019-03-27T10:05:58.063Z,14.80
2019-03-27T10:06:58.129Z,14.10
2019-03-27T10:07:58.031Z,15.00
2019-03-27T10:08:58.044Z,16.70
2019-03-27T10:09:58.080Z,16.10
2019-03-27T10:10:58.055Z,15.10
2019-03-27T10:11:58.026Z,14.50
2019-03-27T10:12:58.077Z,16.10
2019-03-27T10:13:58.054Z,16.60
2019-03-27T10:14:58.046Z,17.90
2019-03-27T10:15:58.125Z,13.80
2019-03-27T10:16:58.043Z,14.40
2019-03-27T10:17:58.055Z,14.90
2019-03-27T10:18:58.075Z,13.80
2019-03-27T10:20:03.628Z,16.00
2019-03-27T10:20:58.066Z,13.70
2019-03-27T10:21:58.139Z,12.90
2019-03-27T10:22:58.043Z,14.40
2019-03-27T10:23:58.073Z,13.10
2019-03-27T10:24:58.074Z,15.40
2019-03-27T10:25:58.043Z,13.50
2019-03-27T10:26:58.038Z,12.90
2019-03-27T10:27:58.099Z,14.50
2019-03-27T10:28:58.058Z,13.80
2019-03-27T10:29:58.081Z,14.60
2019-03-27T10:30:58.084Z,14.60
2019-03-27T10:31:58.059Z,13.50
2019-03-27T10:32:58.090Z,13.20
2019-03-27T10:33:58.115Z,12.30
2019-03-27T10:34:58.070Z,15.50
2019-03-27T10:35:58.073Z,12.60
2019-03-27T10:36:58.106Z,26.70
2019-03-27T10:37:58.044Z,64.60
2019-03-27T10:38:58.088Z,101.50
2019-03-27T10:39:58.169Z,22.70
2019-03-27T10:40:58.060Z,16.20
2019-03-27T10:41:58.062Z,15.60
2019-03-27T10:42:58.099Z,14.20
2019-03-27T10:43:58.057Z,23.00
2019-03-27T10:44:58.128Z,17.30
2019-03-27T10:45:58.118Z,13.40
2019-03-27T10:46:58.065Z,15.90
2019-03-27T10:47:58.082Z,16.00
2019-03-27T10:48:58.088Z,18.50
2019-03-27T10:49:58.054Z,19.10
2019-03-27T10:50:58.056Z,15.30
2019-03-27T10:51:58.149Z,13.90
2019-03-27T10:52:58.078Z,13.90
2019-03-27T10:53:58.107Z,15.90
2019-03-27T10:54:58.107Z,16.20
2019-03-27T10:55:58.049Z,15.90
2019-03-27T10:56:58.100Z,15.20
2019-03-27T10:57:58.131Z,15.90
2019-03-27T10:58:58.204Z,16.60
2019-03-27T10:59:58.066Z,17.30
2019-03-27T11:00:58.109Z,16.30
2019-03-27T11:01:58.054Z,15.60
2019-03-27T11:02:58.074Z,16.80
2019-03-27T11:03:58.125Z,15.70
2019-03-27T11:04:58.095Z,12.80
2019-03-27T11:05:58.092Z,17.20
2019-03-27T11:06:58.116Z,14.80
2019-03-27T11:07:58.066Z,14.80
2019-03-27T11:08:58.117Z,16.60
2019-03-27T11:09:58.130Z,15.80
2019-03-27T11:10:58.405Z,16.90
2019-03-27T11:11:58.094Z,14.80
2019-03-27T11:12:58.119Z,18.00
2019-03-27T11:13:58.075Z,16.40
2019-03-27T11:14:58.097Z,17.00
2019-03-27T11:15:58.177Z,14.30
2019-03-27T11:16:58.101Z,14.70
2019-03-27T11:17:58.105Z,14.70
2019-03-27T11:18:58.119Z,12.90
2019-03-27T11:19:58.095Z,14.60
2019-03-27T11:20:58.095Z,16.10
2019-03-27T11:21:58.133Z,13.90
2019-03-27T11:22:58.098Z,20.00
2019-03-27T11:23:58.115Z,20.10
2019-03-27T11:24:58.125Z,23.80
2019-03-27T11:25:58.083Z,17.40
2019-03-27T11:26:58.093Z,15.30
2019-03-27T11:27:58.145Z,25.30
2019-03-27T11:28:58.104Z,22.30
2019-03-27T11:29:58.121Z,14.20
2019-03-27T11:30:58.137Z,18.60
2019-03-27T11:31:58.196Z,25.60
2019-03-27T11:32:58.108Z,17.20
2019-03-27T11:33:58.148Z,17.70
2019-03-27T11:34:58.107Z,19.20
2019-03-27T11:35:58.140Z,17.40
2019-03-27T11:36:58.135Z,16.80
2019-03-27T11:37:58.096Z,16.70
2019-03-27T11:38:58.212Z,18.30
2019-03-27T11:39:58.144Z,19.00
2019-03-27T11:40:58.109Z,16.40
2019-03-27T11:42:00.616Z,19.10
2019-03-27T11:42:58.134Z,15.30
2019-03-27T11:43:58.108Z,20.40
2019-03-27T11:44:58.119Z,17.10
2019-03-27T11:45:58.174Z,16.00
2019-03-27T11:46:58.160Z,16.70
2019-03-27T11:47:58.186Z,16.80
2019-03-27T11:48:58.225Z,19.80
2019-03-27T11:49:58.167Z,17.90
2019-03-27T11:50:58.210Z,17.10
2019-03-27T11:51:58.255Z,19.90
2019-03-27T11:52:58.245Z,18.50
2019-03-27T11:53:58.279Z,20.10
2019-03-27T11:54:58.282Z,17.40
2019-03-27T11:55:58.265Z,18.40
2019-03-27T11:56:58.281Z,13.80
2019-03-27T11:57:58.349Z,15.80
2019-03-27T11:58:58.324Z,16.40
2019-03-27T11:59:58.329Z,15.50
2019-03-27T12:00:58.397Z,18.80
2019-03-27T12:01:58.320Z,19.20
2019-03-27T12:02:58.372Z,15.50
2019-03-27T12:03:58.404Z,16.60
2019-03-27T12:04:58.373Z,14.00
2019-03-27T12:05:58.368Z,16.20
2019-03-27T12:06:58.393Z,15.60
2019-03-27T12:07:58.392Z,13.50
2019-03-27T12:08:58.413Z,14.80
2019-03-27T12:09:58.467Z,16.10
2019-03-27T12:10:58.451Z,15.40
2019-03-27T12:11:58.454Z,18.50
2019-03-27T12:12:58.483Z,15.20
2019-03-27T12:13:58.462Z,16.50
2019-03-27T12:14:58.521Z,15.80
2019-03-27T12:15:58.526Z,15.60
2019-03-27T12:16:58.503Z,19.40
2019-03-27T12:17:58.531Z,16.90
2019-03-27T12:18:58.556Z,16.50
2019-03-27T12:19:58.538Z,16.10
2019-03-27T12:20:59.661Z,16.60
2019-03-27T12:21:58.597Z,15.50
2019-03-27T12:22:58.585Z,15.20
2019-03-27T12:23:58.614Z,17.80
2019-03-27T12:24:58.621Z,14.80
2019-03-27T12:25:58.587Z,18.50
2019-03-27T12:26:58.653Z,20.20
2019-03-27T12:27:58.679Z,19.30
2019-03-27T12:28:58.649Z,17.40
2019-03-27T12:29:58.689Z,18.90
2019-03-27T12:30:58.712Z,17.80
2019-03-27T12:31:58.693Z,17.20
2019-03-27T12:32:58.696Z,16.90
2019-03-27T12:33:58.734Z,17.60
2019-03-27T12:34:58.728Z,15.60
2019-03-27T12:35:58.735Z,20.70
2019-03-27T12:36:58.770Z,17.10
2019-03-27T12:37:58.740Z,17.90
2019-03-27T12:38:58.786Z,18.20
2019-03-27T12:39:58.828Z,17.30
2019-03-27T12:40:58.802Z,16.70
2019-03-27T12:41:58.827Z,17.30
2019-03-27T12:42:58.815Z,17.20
2019-03-27T12:43:58.792Z,15.70
2019-03-27T12:45:01.604Z,13.80
2019-03-27T12:45:58.852Z,14.50
2019-03-27T12:46:58.926Z,15.90
2019-03-27T12:47:58.850Z,17.00
2019-03-27T12:48:58.857Z,16.50
2019-03-27T12:49:58.819Z,15.40
2019-03-27T12:51:11.770Z,17.40
2019-03-27T12:51:58.878Z,17.30
2019-03-27T12:52:58.839Z,17.40
2019-03-27T12:53:58.865Z,17.30
2019-03-27T12:54:58.911Z,17.10
2019-03-27T12:55:58.823Z,13.80
2019-03-27T12:56:58.846Z,13.20
2019-03-27T12:57:58.894Z,12.80
2019-03-27T12:58:58.859Z,14.30
2019-03-27T12:59:58.874Z,14.20
2019-03-27T13:00:58.881Z,17.00
2019-03-27T13:01:58.855Z,17.80
2019-03-27T13:02:58.890Z,16.30
2019-03-27T13:03:58.891Z,17.50
2019-03-27T13:04:58.846Z,18.20
2019-03-27T13:05:58.840Z,17.30
2019-03-27T13:06:58.859Z,14.60
2019-03-27T13:07:58.849Z,13.60
2019-03-27T13:08:58.890Z,20.30
2019-03-27T13:09:58.887Z,16.10